sensor_id;sensor_type;location;lat;lon;timestamp;P1;durP1;ratioP1;P2;durP2;ratioP2
63534;SDS011;55128;50.230;18.944;2023-02-15T00:00:34;36.33;;;19.38;;
63534;SDS011;55128;50.230;18.944;2023-02-15T00:05:35;99.95;;;41.33;;
63534;SDS011;55128;50.230;18.944;2023-02-15T00:10:35;65.20;;;32.95;;
63534;SDS011;55128;50.230;18.944;2023-02-15T00:15:35;72.72;;;37.40;;
63534;SDS011;55128;50.230;18.944;2023-02-15T00:20:35;49.17;;;28.33;;
63534;SDS011;55128;50.230;18.944;2023-02-15T00:25:36;43.35;;;21.83;;
63534;SDS011;55128;50.230;18.944;2023-02-15T00:30:36;35.57;;;22.60;;
63534;SDS011;55128;50.230;18.944;2023-02-15T00:35:36;47.27;;;23.60;;
63534;SDS011;55128;50.230;18.944;2023-02-15T00:40:37;43.75;;;24.33;;
63534;SDS011;55128;50.230;18.944;2023-02-15T00:45:37;45.23;;;23.03;;
63534;SDS011;55128;50.230;18.944;2023-02-15T00:50:37;60.30;;;27.92;;
63534;SDS011;55128;50.230;18.944;2023-02-15T00:55:38;91.03;;;34.33;;
63534;SDS011;55128;50.230;18.944;2023-02-15T01:00:40;63.47;;;25.20;;
63534;SDS011;55128;50.230;18.944;2023-02-15T01:05:42;85.68;;;32.33;;
63534;SDS011;55128;50.230;18.944;2023-02-15T01:10:43;87.80;;;34.80;;
63534;SDS011;55128;50.230;18.944;2023-02-15T01:15:45;84.25;;;33.92;;
63534;SDS011;55128;50.230;18.944;2023-02-15T01:20:52;68.50;;;30.45;;
63534;SDS011;55128;50.230;18.944;2023-02-15T01:25:52;90.57;;;43.13;;
63534;SDS011;55128;50.230;18.944;2023-02-15T01:30:53;85.38;;;38.28;;
63534;SDS011;55128;50.230;18.944;2023-02-15T01:35:57;67.55;;;32.50;;
63534;SDS011;55128;50.230;18.944;2023-02-15T01:40:57;55.40;;;30.48;;
63534;SDS011;55128;50.230;18.944;2023-02-15T01:46:19;66.93;;;35.13;;
63534;SDS011;55128;50.230;18.944;2023-02-15T01:51:22;61.22;;;33.55;;
63534;SDS011;55128;50.230;18.944;2023-02-15T01:56:27;39.53;;;24.10;;
63534;SDS011;55128;50.230;18.944;2023-02-15T02:01:33;36.25;;;22.88;;
63534;SDS011;55128;50.230;18.944;2023-02-15T02:06:34;36.90;;;22.23;;
63534;SDS011;55128;50.230;18.944;2023-02-15T02:11:36;29.23;;;17.30;;
63534;SDS011;55128;50.230;18.944;2023-02-15T02:16:42;25.83;;;18.42;;
63534;SDS011;55128;50.230;18.944;2023-02-15T02:27:47;32.97;;;19.35;;
63534;SDS011;55128;50.230;18.944;2023-02-15T02:38:44;24.90;;;16.30;;
63534;SDS011;55128;50.230;18.944;2023-02-15T02:49:11;22.65;;;16.45;;
63534;SDS011;55128;50.230;18.944;2023-02-15T02:54:11;26.05;;;15.52;;
63534;SDS011;55128;50.230;18.944;2023-02-15T02:59:13;25.00;;;16.65;;
63534;SDS011;55128;50.230;18.944;2023-02-15T03:09:36;23.50;;;14.98;;
63534;SDS011;55128;50.230;18.944;2023-02-15T03:14:42;21.70;;;15.45;;
63534;SDS011;55128;50.230;18.944;2023-02-15T03:19:45;23.40;;;16.13;;
63534;SDS011;55128;50.230;18.944;2023-02-15T03:24:52;25.98;;;18.88;;
63534;SDS011;55128;50.230;18.944;2023-02-15T03:30:10;26.17;;;15.02;;
63534;SDS011;55128;50.230;18.944;2023-02-15T03:35:13;22.52;;;16.27;;
63534;SDS011;55128;50.230;18.944;2023-02-15T03:45:45;23.90;;;14.90;;
63534;SDS011;55128;50.230;18.944;2023-02-15T03:50:56;22.20;;;15.18;;
63534;SDS011;55128;50.230;18.944;2023-02-15T03:56:30;22.52;;;14.32;;
63534;SDS011;55128;50.230;18.944;2023-02-15T04:01:45;24.92;;;16.42;;
63534;SDS011;55128;50.230;18.944;2023-02-15T04:06:58;29.10;;;20.65;;
63534;SDS011;55128;50.230;18.944;2023-02-15T04:11:59;27.95;;;17.30;;
63534;SDS011;55128;50.230;18.944;2023-02-15T04:17:00;31.35;;;18.40;;
63534;SDS011;55128;50.230;18.944;2023-02-15T04:22:00;22.77;;;15.38;;
63534;SDS011;55128;50.230;18.944;2023-02-15T04:27:19;30.20;;;19.75;;
63534;SDS011;55128;50.230;18.944;2023-02-15T04:32:19;34.80;;;19.17;;
63534;SDS011;55128;50.230;18.944;2023-02-15T04:37:20;39.97;;;21.10;;
63534;SDS011;55128;50.230;18.944;2023-02-15T04:42:20;33.50;;;17.75;;
63534;SDS011;55128;50.230;18.944;2023-02-15T04:47:21;42.30;;;20.40;;
63534;SDS011;55128;50.230;18.944;2023-02-15T04:52:21;31.95;;;18.40;;
63534;SDS011;55128;50.230;18.944;2023-02-15T04:57:22;43.13;;;20.48;;
63534;SDS011;55128;50.230;18.944;2023-02-15T05:02:22;25.30;;;15.90;;
63534;SDS011;55128;50.230;18.944;2023-02-15T05:07:22;62.92;;;32.17;;
63534;SDS011;55128;50.230;18.944;2023-02-15T05:12:23;37.03;;;19.77;;
63534;SDS011;55128;50.230;18.944;2023-02-15T05:17:23;29.17;;;17.93;;
63534;SDS011;55128;50.230;18.944;2023-02-15T05:22:23;30.92;;;19.63;;
63534;SDS011;55128;50.230;18.944;2023-02-15T05:27:24;32.55;;;21.50;;
63534;SDS011;55128;50.230;18.944;2023-02-15T05:32:43;31.38;;;20.08;;
63534;SDS011;55128;50.230;18.944;2023-02-15T05:37:43;29.40;;;17.93;;
63534;SDS011;55128;50.230;18.944;2023-02-15T05:42:43;36.40;;;20.95;;
63534;SDS011;55128;50.230;18.944;2023-02-15T05:47:44;31.90;;;19.38;;
63534;SDS011;55128;50.230;18.944;2023-02-15T05:52:45;36.78;;;21.70;;
63534;SDS011;55128;50.230;18.944;2023-02-15T05:57:45;37.58;;;21.63;;
63534;SDS011;55128;50.230;18.944;2023-02-15T06:02:46;47.55;;;25.08;;
63534;SDS011;55128;50.230;18.944;2023-02-15T06:07:46;43.50;;;24.30;;
63534;SDS011;55128;50.230;18.944;2023-02-15T06:12:46;39.20;;;22.20;;
63534;SDS011;55128;50.230;18.944;2023-02-15T06:17:47;34.72;;;19.25;;
63534;SDS011;55128;50.230;18.944;2023-02-15T06:22:47;35.70;;;21.53;;
63534;SDS011;55128;50.230;18.944;2023-02-15T06:27:47;40.58;;;21.90;;
63534;SDS011;55128;50.230;18.944;2023-02-15T06:32:49;35.03;;;21.77;;
63534;SDS011;55128;50.230;18.944;2023-02-15T06:37:49;34.67;;;21.55;;
63534;SDS011;55128;50.230;18.944;2023-02-15T06:42:49;39.50;;;23.00;;
63534;SDS011;55128;50.230;18.944;2023-02-15T06:47:50;39.28;;;22.13;;
63534;SDS011;55128;50.230;18.944;2023-02-15T06:52:55;39.37;;;23.17;;
63534;SDS011;55128;50.230;18.944;2023-02-15T06:57:58;55.20;;;32.05;;
63534;SDS011;55128;50.230;18.944;2023-02-15T07:02:59;41.65;;;24.58;;
63534;SDS011;55128;50.230;18.944;2023-02-15T07:07:59;36.05;;;22.42;;
63534;SDS011;55128;50.230;18.944;2023-02-15T07:13:00;37.47;;;22.63;;
63534;SDS011;55128;50.230;18.944;2023-02-15T07:18:00;36.90;;;21.80;;
63534;SDS011;55128;50.230;18.944;2023-02-15T07:23:01;34.70;;;22.15;;
63534;SDS011;55128;50.230;18.944;2023-02-15T07:28:02;43.80;;;23.75;;
63534;SDS011;55128;50.230;18.944;2023-02-15T07:33:03;37.88;;;23.08;;
63534;SDS011;55128;50.230;18.944;2023-02-15T07:38:22;39.88;;;25.33;;
63534;SDS011;55128;50.230;18.944;2023-02-15T07:43:24;37.00;;;22.17;;
63534;SDS011;55128;50.230;18.944;2023-02-15T07:48:25;39.92;;;25.17;;
63534;SDS011;55128;50.230;18.944;2023-02-15T07:53:25;43.03;;;24.88;;
63534;SDS011;55128;50.230;18.944;2023-02-15T07:58:26;47.90;;;26.92;;
63534;SDS011;55128;50.230;18.944;2023-02-15T08:03:46;41.42;;;25.42;;
63534;SDS011;55128;50.230;18.944;2023-02-15T08:08:47;36.35;;;22.83;;
63534;SDS011;55128;50.230;18.944;2023-02-15T08:13:48;30.27;;;20.35;;
63534;SDS011;55128;50.230;18.944;2023-02-15T08:18:54;30.27;;;20.80;;
63534;SDS011;55128;50.230;18.944;2023-02-15T08:23:56;31.58;;;19.70;;
63534;SDS011;55128;50.230;18.944;2023-02-15T08:28:57;25.20;;;19.50;;
63534;SDS011;55128;50.230;18.944;2023-02-15T08:33:58;28.83;;;20.60;;
63534;SDS011;55128;50.230;18.944;2023-02-15T08:38:59;29.30;;;20.27;;
63534;SDS011;55128;50.230;18.944;2023-02-15T08:44:04;26.10;;;19.60;;
63534;SDS011;55128;50.230;18.944;2023-02-15T08:49:08;24.42;;;19.10;;
63534;SDS011;55128;50.230;18.944;2023-02-15T08:54:12;27.95;;;21.00;;
63534;SDS011;55128;50.230;18.944;2023-02-15T08:59:16;22.85;;;19.17;;
63534;SDS011;55128;50.230;18.944;2023-02-15T09:04:17;24.63;;;21.17;;
63534;SDS011;55128;50.230;18.944;2023-02-15T09:09:19;24.75;;;20.35;;
63534;SDS011;55128;50.230;18.944;2023-02-15T09:14:25;22.90;;;20.50;;
63534;SDS011;55128;50.230;18.944;2023-02-15T09:19:27;24.90;;;21.10;;
63534;SDS011;55128;50.230;18.944;2023-02-15T09:24:31;21.38;;;19.17;;
63534;SDS011;55128;50.230;18.944;2023-02-15T09:29:38;21.25;;;19.15;;
63534;SDS011;55128;50.230;18.944;2023-02-15T09:34:44;21.90;;;19.60;;
63534;SDS011;55128;50.230;18.944;2023-02-15T09:40:06;20.83;;;18.70;;
63534;SDS011;55128;50.230;18.944;2023-02-15T10:01:09;18.30;;;16.50;;
63534;SDS011;55128;50.230;18.944;2023-02-15T10:06:16;18.75;;;16.95;;
63534;SDS011;55128;50.230;18.944;2023-02-15T10:17:24;122.68;;;100.63;;
63534;SDS011;55128;50.230;18.944;2023-02-15T10:28:22;20.05;;;17.98;;
63534;SDS011;55128;50.230;18.944;2023-02-15T10:38:40;20.02;;;18.02;;
63534;SDS011;55128;50.230;18.944;2023-02-15T10:49:22;22.40;;;18.95;;
63534;SDS011;55128;50.230;18.944;2023-02-15T11:05:07;24.80;;;19.63;;
63534;SDS011;55128;50.230;18.944;2023-02-15T11:10:26;23.50;;;18.50;;
63534;SDS011;55128;50.230;18.944;2023-02-15T11:15:35;24.95;;;18.73;;
63534;SDS011;55128;50.230;18.944;2023-02-15T11:20:43;25.00;;;17.80;;
63534;SDS011;55128;50.230;18.944;2023-02-15T11:26:04;23.80;;;17.90;;
63534;SDS011;55128;50.230;18.944;2023-02-15T11:31:14;22.27;;;16.15;;
63534;SDS011;55128;50.230;18.944;2023-02-15T11:36:19;23.42;;;16.85;;
63534;SDS011;55128;50.230;18.944;2023-02-15T11:41:28;23.40;;;16.27;;
63534;SDS011;55128;50.230;18.944;2023-02-15T11:46:31;25.77;;;18.08;;
63534;SDS011;55128;50.230;18.944;2023-02-15T11:51:32;20.70;;;15.93;;
63534;SDS011;55128;50.230;18.944;2023-02-15T11:56:32;22.90;;;16.73;;
63534;SDS011;55128;50.230;18.944;2023-02-15T12:01:35;25.65;;;16.23;;
63534;SDS011;55128;50.230;18.944;2023-02-15T12:06:41;22.93;;;16.13;;
63534;SDS011;55128;50.230;18.944;2023-02-15T12:11:48;24.73;;;15.80;;
63534;SDS011;55128;50.230;18.944;2023-02-15T12:16:49;19.00;;;14.87;;
63534;SDS011;55128;50.230;18.944;2023-02-15T12:21:52;19.27;;;13.70;;
63534;SDS011;55128;50.230;18.944;2023-02-15T12:27:27;19.55;;;13.93;;
63534;SDS011;55128;50.230;18.944;2023-02-15T12:32:35;19.00;;;14.48;;
63534;SDS011;55128;50.230;18.944;2023-02-15T12:37:57;22.35;;;15.70;;
63534;SDS011;55128;50.230;18.944;2023-02-15T12:43:02;18.77;;;13.73;;
63534;SDS011;55128;50.230;18.944;2023-02-15T12:48:10;20.25;;;12.63;;
63534;SDS011;55128;50.230;18.944;2023-02-15T12:53:30;18.15;;;12.70;;
63534;SDS011;55128;50.230;18.944;2023-02-15T12:58:33;18.90;;;12.52;;
63534;SDS011;55128;50.230;18.944;2023-02-15T13:03:35;19.60;;;13.82;;
63534;SDS011;55128;50.230;18.944;2023-02-15T13:08:45;19.73;;;12.80;;
63534;SDS011;55128;50.230;18.944;2023-02-15T13:13:59;19.58;;;13.13;;
63534;SDS011;55128;50.230;18.944;2023-02-15T13:19:06;20.00;;;14.10;;
63534;SDS011;55128;50.230;18.944;2023-02-15T13:29:27;21.23;;;13.48;;
63534;SDS011;55128;50.230;18.944;2023-02-15T13:34:30;21.30;;;13.95;;
63534;SDS011;55128;50.230;18.944;2023-02-15T13:55:34;22.73;;;14.77;;
63534;SDS011;55128;50.230;18.944;2023-02-15T14:28:10;26.27;;;15.63;;
63534;SDS011;55128;50.230;18.944;2023-02-15T14:59:17;25.88;;;16.92;;
63534;SDS011;55128;50.230;18.944;2023-02-15T15:05:07;24.50;;;15.65;;
63534;SDS011;55128;50.230;18.944;2023-02-15T15:15:39;25.33;;;16.60;;
63534;SDS011;55128;50.230;18.944;2023-02-15T15:20:49;27.80;;;17.20;;
63534;SDS011;55128;50.230;18.944;2023-02-15T15:25:57;28.83;;;16.85;;
63534;SDS011;55128;50.230;18.944;2023-02-15T15:31:30;24.00;;;16.55;;
63534;SDS011;55128;50.230;18.944;2023-02-15T15:53:25;25.42;;;14.90;;
63534;SDS011;55128;50.230;18.944;2023-02-15T15:58:31;25.83;;;16.60;;
63534;SDS011;55128;50.230;18.944;2023-02-15T16:03:34;27.70;;;16.50;;
63534;SDS011;55128;50.230;18.944;2023-02-15T16:08:35;36.83;;;18.35;;
63534;SDS011;55128;50.230;18.944;2023-02-15T16:13:39;36.33;;;19.13;;
63534;SDS011;55128;50.230;18.944;2023-02-15T16:18:41;26.70;;;15.60;;
63534;SDS011;55128;50.230;18.944;2023-02-15T16:28:58;27.88;;;17.38;;
63534;SDS011;55128;50.230;18.944;2023-02-15T16:33:58;25.45;;;16.33;;
63534;SDS011;55128;50.230;18.944;2023-02-15T16:43:59;56.43;;;27.20;;
63534;SDS011;55128;50.230;18.944;2023-02-15T16:49:15;56.85;;;26.33;;
63534;SDS011;55128;50.230;18.944;2023-02-15T16:54:19;46.67;;;23.90;;
63534;SDS011;55128;50.230;18.944;2023-02-15T17:04:31;38.10;;;21.50;;
63534;SDS011;55128;50.230;18.944;2023-02-15T17:09:32;31.48;;;18.05;;
63534;SDS011;55128;50.230;18.944;2023-02-15T17:14:37;33.88;;;19.92;;
63534;SDS011;55128;50.230;18.944;2023-02-15T17:19:50;32.42;;;18.42;;
63534;SDS011;55128;50.230;18.944;2023-02-15T17:25:00;39.72;;;21.92;;
63534;SDS011;55128;50.230;18.944;2023-02-15T17:30:12;61.55;;;29.83;;
63534;SDS011;55128;50.230;18.944;2023-02-15T17:35:19;63.70;;;29.60;;
63534;SDS011;55128;50.230;18.944;2023-02-15T17:40:26;56.10;;;28.70;;
63534;SDS011;55128;50.230;18.944;2023-02-15T17:45:32;45.85;;;24.80;;
63534;SDS011;55128;50.230;18.944;2023-02-15T17:50:35;45.30;;;24.67;;
63534;SDS011;55128;50.230;18.944;2023-02-15T17:55:35;43.05;;;24.80;;
63534;SDS011;55128;50.230;18.944;2023-02-15T18:00:40;48.25;;;25.33;;
63534;SDS011;55128;50.230;18.944;2023-02-15T18:06:03;53.15;;;25.63;;
63534;SDS011;55128;50.230;18.944;2023-02-15T18:11:22;52.92;;;27.00;;
63534;SDS011;55128;50.230;18.944;2023-02-15T18:16:39;47.88;;;26.23;;
63534;SDS011;55128;50.230;18.944;2023-02-15T18:21:42;50.70;;;27.40;;
63534;SDS011;55128;50.230;18.944;2023-02-15T18:26:43;51.80;;;27.90;;
63534;SDS011;55128;50.230;18.944;2023-02-15T18:31:44;49.90;;;27.67;;
63534;SDS011;55128;50.230;18.944;2023-02-15T18:36:50;57.78;;;29.40;;
63534;SDS011;55128;50.230;18.944;2023-02-15T18:41:51;53.20;;;28.15;;
63534;SDS011;55128;50.230;18.944;2023-02-15T18:46:52;54.33;;;29.50;;
63534;SDS011;55128;50.230;18.944;2023-02-15T18:51:53;55.07;;;29.07;;
63534;SDS011;55128;50.230;18.944;2023-02-15T18:56:55;48.08;;;26.33;;
63534;SDS011;55128;50.230;18.944;2023-02-15T19:01:57;57.83;;;29.77;;
63534;SDS011;55128;50.230;18.944;2023-02-15T19:06:59;52.50;;;29.83;;
63534;SDS011;55128;50.230;18.944;2023-02-15T19:11:59;58.65;;;30.85;;
63534;SDS011;55128;50.230;18.944;2023-02-15T19:17:00;55.22;;;29.70;;
63534;SDS011;55128;50.230;18.944;2023-02-15T19:22:00;49.42;;;28.58;;
63534;SDS011;55128;50.230;18.944;2023-02-15T19:27:02;53.22;;;29.92;;
63534;SDS011;55128;50.230;18.944;2023-02-15T19:32:02;58.85;;;30.00;;
63534;SDS011;55128;50.230;18.944;2023-02-15T19:37:03;53.10;;;29.40;;
63534;SDS011;55128;50.230;18.944;2023-02-15T19:42:12;57.25;;;31.10;;
63534;SDS011;55128;50.230;18.944;2023-02-15T19:47:14;57.55;;;29.10;;
63534;SDS011;55128;50.230;18.944;2023-02-15T19:52:16;60.53;;;29.95;;
63534;SDS011;55128;50.230;18.944;2023-02-15T19:57:18;60.23;;;30.37;;
63534;SDS011;55128;50.230;18.944;2023-02-15T20:02:19;53.80;;;28.25;;
63534;SDS011;55128;50.230;18.944;2023-02-15T20:07:26;54.22;;;28.63;;
63534;SDS011;55128;50.230;18.944;2023-02-15T20:12:27;56.63;;;30.45;;
63534;SDS011;55128;50.230;18.944;2023-02-15T20:17:28;59.78;;;29.95;;
63534;SDS011;55128;50.230;18.944;2023-02-15T20:22:28;59.45;;;30.35;;
63534;SDS011;55128;50.230;18.944;2023-02-15T20:27:29;58.00;;;30.70;;
63534;SDS011;55128;50.230;18.944;2023-02-15T20:32:29;64.97;;;32.75;;
63534;SDS011;55128;50.230;18.944;2023-02-15T20:37:29;62.47;;;31.52;;
63534;SDS011;55128;50.230;18.944;2023-02-15T20:42:30;58.65;;;31.27;;
63534;SDS011;55128;50.230;18.944;2023-02-15T20:47:30;54.80;;;28.63;;
63534;SDS011;55128;50.230;18.944;2023-02-15T20:52:31;62.38;;;31.67;;
63534;SDS011;55128;50.230;18.944;2023-02-15T20:57:31;53.38;;;29.38;;
63534;SDS011;55128;50.230;18.944;2023-02-15T21:02:31;60.38;;;31.90;;
63534;SDS011;55128;50.230;18.944;2023-02-15T21:07:32;66.70;;;32.58;;
63534;SDS011;55128;50.230;18.944;2023-02-15T21:12:32;66.87;;;30.67;;
63534;SDS011;55128;50.230;18.944;2023-02-15T21:17:32;63.05;;;29.60;;
63534;SDS011;55128;50.230;18.944;2023-02-15T21:22:33;53.53;;;28.60;;
63534;SDS011;55128;50.230;18.944;2023-02-15T21:27:33;60.72;;;30.80;;
63534;SDS011;55128;50.230;18.944;2023-02-15T21:32:33;66.22;;;31.60;;
63534;SDS011;55128;50.230;18.944;2023-02-15T21:37:34;68.57;;;31.77;;
63534;SDS011;55128;50.230;18.944;2023-02-15T21:42:35;58.03;;;27.80;;
63534;SDS011;55128;50.230;18.944;2023-02-15T21:47:54;54.53;;;27.27;;
63534;SDS011;55128;50.230;18.944;2023-02-15T21:52:54;51.27;;;26.00;;
63534;SDS011;55128;50.230;18.944;2023-02-15T21:57:55;51.20;;;25.98;;
63534;SDS011;55128;50.230;18.944;2023-02-15T22:02:56;50.55;;;25.10;;
63534;SDS011;55128;50.230;18.944;2023-02-15T22:07:58;54.17;;;25.95;;
63534;SDS011;55128;50.230;18.944;2023-02-15T22:12:59;48.30;;;24.85;;
63534;SDS011;55128;50.230;18.944;2023-02-15T22:18:01;47.33;;;23.52;;
63534;SDS011;55128;50.230;18.944;2023-02-15T22:23:02;50.20;;;25.30;;
63534;SDS011;55128;50.230;18.944;2023-02-15T22:28:02;47.73;;;24.83;;
63534;SDS011;55128;50.230;18.944;2023-02-15T22:33:03;47.72;;;24.00;;
63534;SDS011;55128;50.230;18.944;2023-02-15T22:38:03;46.57;;;25.30;;
63534;SDS011;55128;50.230;18.944;2023-02-15T22:43:04;47.97;;;22.70;;
63534;SDS011;55128;50.230;18.944;2023-02-15T22:48:05;50.28;;;25.42;;
63534;SDS011;55128;50.230;18.944;2023-02-15T22:53:05;47.67;;;24.45;;
63534;SDS011;55128;50.230;18.944;2023-02-15T22:58:09;54.55;;;24.83;;
63534;SDS011;55128;50.230;18.944;2023-02-15T23:03:21;53.97;;;26.30;;
63534;SDS011;55128;50.230;18.944;2023-02-15T23:08:23;54.47;;;28.15;;
63534;SDS011;55128;50.230;18.944;2023-02-15T23:13:25;59.63;;;29.15;;
63534;SDS011;55128;50.230;18.944;2023-02-15T23:23:37;56.50;;;29.92;;
63534;SDS011;55128;50.230;18.944;2023-02-15T23:28:39;55.35;;;27.85;;
63534;SDS011;55128;50.230;18.944;2023-02-15T23:33:40;57.85;;;29.42;;
63534;SDS011;55128;50.230;18.944;2023-02-15T23:38:40;54.95;;;27.45;;
63534;SDS011;55128;50.230;18.944;2023-02-15T23:43:41;45.80;;;24.30;;
63534;SDS011;55128;50.230;18.944;2023-02-15T23:48:45;43.53;;;24.10;;
63534;SDS011;55128;50.230;18.944;2023-02-15T23:53:45;47.78;;;25.65;;
63534;SDS011;55128;50.230;18.944;2023-02-15T23:58:46;58.05;;;29.10;;
